sensor_id;sensor_type;location;lat;lon;timestamp;pressure;altitude;pressure_sealevel;temperature;humidity
79131;BME280;70394;45.194;9.142;2023-08-06T00:00:26;99622.75;;;26.64;41.98
79131;BME280;70394;45.194;9.142;2023-08-06T00:02:51;99629.19;;;26.63;42.13
79131;BME280;70394;45.194;9.142;2023-08-06T00:05:17;99631.69;;;26.65;41.95
79131;BME280;70394;45.194;9.142;2023-08-06T00:07:48;99629.91;;;26.57;42.18
79131;BME280;70394;45.194;9.142;2023-08-06T00:10:14;99623.56;;;26.65;42.45
79131;BME280;70394;45.194;9.142;2023-08-06T00:12:40;99631.03;;;26.63;42.39
79131;BME280;70394;45.194;9.142;2023-08-06T00:15:05;99632.53;;;26.65;42.30
79131;BME280;70394;45.194;9.142;2023-08-06T00:17:31;99628.50;;;26.61;41.96
79131;BME280;70394;45.194;9.142;2023-08-06T00:19:56;99636.06;;;26.66;42.34
79131;BME280;70394;45.194;9.142;2023-08-06T00:22:21;99637.94;;;26.65;42.40
79131;BME280;70394;45.194;9.142;2023-08-06T00:24:47;99636.72;;;26.68;41.96
79131;BME280;70394;45.194;9.142;2023-08-06T00:27:12;99636.56;;;26.70;42.19
79131;BME280;70394;45.194;9.142;2023-08-06T00:29:37;99647.38;;;26.70;42.10
79131;BME280;70394;45.194;9.142;2023-08-06T00:32:03;99639.25;;;26.70;42.38
79131;BME280;70394;45.194;9.142;2023-08-06T00:34:28;99639.91;;;26.72;42.10
79131;BME280;70394;45.194;9.142;2023-08-06T00:36:54;99639.09;;;26.71;42.27
79131;BME280;70394;45.194;9.142;2023-08-06T00:39:19;99638.22;;;26.71;42.21
79131;BME280;70394;45.194;9.142;2023-08-06T00:41:44;99643.81;;;26.69;42.33
79131;BME280;70394;45.194;9.142;2023-08-06T00:44:10;99639.81;;;26.65;42.32
79131;BME280;70394;45.194;9.142;2023-08-06T00:46:35;99639.63;;;26.66;42.40
79131;BME280;70394;45.194;9.142;2023-08-06T00:49:01;99635.03;;;26.67;42.45
79131;BME280;70394;45.194;9.142;2023-08-06T00:51:26;99632.53;;;26.65;42.48
79131;BME280;70394;45.194;9.142;2023-08-06T00:53:52;99640.66;;;26.65;42.64
79131;BME280;70394;45.194;9.142;2023-08-06T00:56:18;99640.81;;;26.64;42.40
79131;BME280;70394;45.194;9.142;2023-08-06T00:58:45;99638.97;;;26.64;42.61
79131;BME280;70394;45.194;9.142;2023-08-06T01:01:10;99640.44;;;26.67;42.39
79131;BME280;70394;45.194;9.142;2023-08-06T01:03:36;99649.41;;;26.67;42.46
79131;BME280;70394;45.194;9.142;2023-08-06T01:06:01;99641.31;;;26.67;42.63
79131;BME280;70394;45.194;9.142;2023-08-06T01:08:56;99642.13;;;26.68;42.67
79131;BME280;70394;45.194;9.142;2023-08-06T01:14:28;99645.22;;;26.65;42.85
79131;BME280;70394;45.194;9.142;2023-08-06T01:16:56;99632.72;;;26.64;42.68
79131;BME280;70394;45.194;9.142;2023-08-06T01:19:24;99638.41;;;26.69;42.75
79131;BME280;70394;45.194;9.142;2023-08-06T01:21:49;99632.72;;;26.64;42.82
79131;BME280;70394;45.194;9.142;2023-08-06T01:24:15;99634.59;;;26.63;42.80
79131;BME280;70394;45.194;9.142;2023-08-06T01:26:56;99646.44;;;26.62;42.86
79131;BME280;70394;45.194;9.142;2023-08-06T01:29:36;99650.25;;;26.68;42.84
79131;BME280;70394;45.194;9.142;2023-08-06T01:32:05;99642.50;;;26.65;42.89
79131;BME280;70394;45.194;9.142;2023-08-06T01:34:32;99645.22;;;26.65;42.98
79131;BME280;70394;45.194;9.142;2023-08-06T01:36:59;99640.16;;;26.62;42.96
79131;BME280;70394;45.194;9.142;2023-08-06T01:39:26;99616.09;;;26.52;42.90
79131;BME280;70394;45.194;9.142;2023-08-06T01:41:51;99639.31;;;26.61;43.08
79131;BME280;70394;45.194;9.142;2023-08-06T01:44:16;99630.88;;;26.64;43.22
79131;BME280;70394;45.194;9.142;2023-08-06T01:46:42;99630.88;;;26.64;43.48
79131;BME280;70394;45.194;9.142;2023-08-06T01:49:07;99625.63;;;26.63;43.25
79131;BME280;70394;45.194;9.142;2023-08-06T01:51:33;99621.91;;;26.64;43.24
79131;BME280;70394;45.194;9.142;2023-08-06T01:53:58;99620.22;;;26.63;43.43
79131;BME280;70394;45.194;9.142;2023-08-06T01:56:23;99611.63;;;26.59;43.33
79131;BME280;70394;45.194;9.142;2023-08-06T01:58:49;99621.72;;;26.65;43.42
79131;BME280;70394;45.194;9.142;2023-08-06T02:01:14;99622.75;;;26.64;43.16
79131;BME280;70394;45.194;9.142;2023-08-06T02:03:39;99624.44;;;26.65;43.39
79131;BME280;70394;45.194;9.142;2023-08-06T02:06:05;99623.09;;;26.61;43.43
79131;BME280;70394;45.194;9.142;2023-08-06T02:08:30;99616.88;;;26.61;43.41
79131;BME280;70394;45.194;9.142;2023-08-06T02:10:56;99631.88;;;26.63;43.46
79131;BME280;70394;45.194;9.142;2023-08-06T02:13:23;99632.34;;;26.67;43.39
79131;BME280;70394;45.194;9.142;2023-08-06T02:15:48;99623.78;;;26.63;43.53
79131;BME280;70394;45.194;9.142;2023-08-06T02:18:14;99625.09;;;26.67;43.47
79131;BME280;70394;45.194;9.142;2023-08-06T02:20:40;99621.06;;;26.63;43.51
79131;BME280;70394;45.194;9.142;2023-08-06T02:23:05;99621.25;;;26.62;43.74
79131;BME280;70394;45.194;9.142;2023-08-06T02:25:31;99630.88;;;26.64;43.58
79131;BME280;70394;45.194;9.142;2023-08-06T02:27:56;99636.06;;;26.66;43.48
79131;BME280;70394;45.194;9.142;2023-08-06T02:30:21;99635.25;;;26.65;43.48
79131;BME280;70394;45.194;9.142;2023-08-06T02:32:47;99637.75;;;26.67;43.50
79131;BME280;70394;45.194;9.142;2023-08-06T02:35:12;99633.38;;;26.66;43.47
79131;BME280;70394;45.194;9.142;2023-08-06T02:37:37;99633.09;;;26.61;43.66
79131;BME280;70394;45.194;9.142;2023-08-06T02:40:03;99636.81;;;26.60;43.72
79131;BME280;70394;45.194;9.142;2023-08-06T02:42:29;99637.28;;;26.63;43.67
79131;BME280;70394;45.194;9.142;2023-08-06T02:44:54;99633.56;;;26.64;43.45
79131;BME280;70394;45.194;9.142;2023-08-06T02:47:22;99625.78;;;26.61;43.46
79131;BME280;70394;45.194;9.142;2023-08-06T02:49:48;99623.47;;;26.58;43.74
79131;BME280;70394;45.194;9.142;2023-08-06T02:52:14;99618.06;;;26.58;43.75
79131;BME280;70394;45.194;9.142;2023-08-06T02:54:39;99606.03;;;26.61;44.01
79131;BME280;70394;45.194;9.142;2023-08-06T02:57:05;99608.75;;;26.61;43.77
79131;BME280;70394;45.194;9.142;2023-08-06T02:59:31;99609.22;;;26.64;43.81
79131;BME280;70394;45.194;9.142;2023-08-06T03:01:56;99616.50;;;26.64;43.74
79131;BME280;70394;45.194;9.142;2023-08-06T03:04:22;99607.56;;;26.63;43.70
79131;BME280;70394;45.194;9.142;2023-08-06T03:06:49;99602.22;;;26.55;43.83
79131;BME280;70394;45.194;9.142;2023-08-06T03:09:15;99599.34;;;26.57;43.69
79131;BME280;70394;45.194;9.142;2023-08-06T03:11:40;99598.47;;;26.56;43.98
79131;BME280;70394;45.194;9.142;2023-08-06T03:14:06;99598.09;;;26.59;43.92
79131;BME280;70394;45.194;9.142;2023-08-06T03:16:31;99596.06;;;26.61;44.12
79131;BME280;70394;45.194;9.142;2023-08-06T03:18:56;99596.06;;;26.61;43.68
79131;BME280;70394;45.194;9.142;2023-08-06T03:21:22;99602.97;;;26.64;43.88
79131;BME280;70394;45.194;9.142;2023-08-06T03:23:47;99606.88;;;26.61;43.87
79131;BME280;70394;45.194;9.142;2023-08-06T03:26:14;99600.81;;;26.59;44.04
79131;BME280;70394;45.194;9.142;2023-08-06T03:28:39;99588.16;;;26.60;43.98
79131;BME280;70394;45.194;9.142;2023-08-06T03:31:04;99601.13;;;26.64;43.81
79131;BME280;70394;45.194;9.142;2023-08-06T03:33:30;99586.47;;;26.59;44.08
79131;BME280;70394;45.194;9.142;2023-08-06T03:35:56;99594.75;;;26.57;44.04
79131;BME280;70394;45.194;9.142;2023-08-06T03:38:21;99588.97;;;26.60;44.07
79131;BME280;70394;45.194;9.142;2023-08-06T03:40:47;99586.94;;;26.62;44.01
79131;BME280;70394;45.194;9.142;2023-08-06T03:43:13;99584.97;;;26.56;43.94
79131;BME280;70394;45.194;9.142;2023-08-06T03:45:38;99579.94;;;26.53;44.26
79131;BME280;70394;45.194;9.142;2023-08-06T03:48:04;99586.84;;;26.56;44.14
79131;BME280;70394;45.194;9.142;2023-08-06T03:50:29;99580.78;;;26.53;44.01
79131;BME280;70394;45.194;9.142;2023-08-06T03:52:54;99593.72;;;26.58;44.33
79131;BME280;70394;45.194;9.142;2023-08-06T03:55:20;99598.69;;;26.55;44.42
79131;BME280;70394;45.194;9.142;2023-08-06T03:57:45;99589.34;;;26.57;44.23
79131;BME280;70394;45.194;9.142;2023-08-06T04:00:11;99591.41;;;26.55;44.36
79131;BME280;70394;45.194;9.142;2023-08-06T04:02:37;99585.81;;;26.57;44.40
79131;BME280;70394;45.194;9.142;2023-08-06T04:05:03;99596.91;;;26.47;44.59
79131;BME280;70394;45.194;9.142;2023-08-06T04:07:28;99598.00;;;26.52;44.48
79131;BME280;70394;45.194;9.142;2023-08-06T04:09:59;99611.34;;;26.54;44.35
79131;BME280;70394;45.194;9.142;2023-08-06T04:12:26;99610.69;;;26.52;44.57
79131;BME280;70394;45.194;9.142;2023-08-06T04:14:52;99601.38;;;26.55;44.70
79131;BME280;70394;45.194;9.142;2023-08-06T04:17:19;99606.78;;;26.55;44.32
79131;BME280;70394;45.194;9.142;2023-08-06T04:19:50;99608.28;;;26.57;44.35
79131;BME280;70394;45.194;9.142;2023-08-06T04:22:15;99607.25;;;26.58;44.42
79131;BME280;70394;45.194;9.142;2023-08-06T04:24:41;99603.88;;;26.56;44.29
79131;BME280;70394;45.194;9.142;2023-08-06T04:27:08;99613.69;;;26.57;44.57
79131;BME280;70394;45.194;9.142;2023-08-06T04:29:33;99609.50;;;26.55;44.74
79131;BME280;70394;45.194;9.142;2023-08-06T04:31:58;99614.69;;;26.56;44.65
79131;BME280;70394;45.194;9.142;2023-08-06T04:34:24;99620.09;;;26.56;44.47
79131;BME280;70394;45.194;9.142;2023-08-06T04:36:49;99615.34;;;26.58;44.62
79131;BME280;70394;45.194;9.142;2023-08-06T04:39:14;99610.81;;;26.59;44.63
79131;BME280;70394;45.194;9.142;2023-08-06T04:41:40;99613.22;;;26.53;44.75
79131;BME280;70394;45.194;9.142;2023-08-06T04:44:05;99604.09;;;26.55;44.70
79131;BME280;70394;45.194;9.142;2023-08-06T04:46:31;99602.59;;;26.52;44.46
79131;BME280;70394;45.194;9.142;2023-08-06T04:48:56;99612.66;;;26.58;44.57
79131;BME280;70394;45.194;9.142;2023-08-06T04:51:21;99610.25;;;26.63;44.50
79131;BME280;70394;45.194;9.142;2023-08-06T04:53:47;99611.63;;;26.59;44.53
79131;BME280;70394;45.194;9.142;2023-08-06T04:56:12;99609.78;;;26.60;44.52
79131;BME280;70394;45.194;9.142;2023-08-06T04:58:37;99590.47;;;26.48;44.73
79131;BME280;70394;45.194;9.142;2023-08-06T05:01:03;99608.47;;;26.56;44.59
79131;BME280;70394;45.194;9.142;2023-08-06T05:03:28;99601.84;;;26.58;44.78
79131;BME280;70394;45.194;9.142;2023-08-06T05:05:54;99602.41;;;26.53;44.76
79131;BME280;70394;45.194;9.142;2023-08-06T05:08:19;99610.16;;;26.57;45.25
79131;BME280;70394;45.194;9.142;2023-08-06T05:10:45;99603.22;;;26.54;44.74
79131;BME280;70394;45.194;9.142;2023-08-06T05:13:11;99613.88;;;26.56;44.64
79131;BME280;70394;45.194;9.142;2023-08-06T05:15:36;99613.88;;;26.56;44.76
79131;BME280;70394;45.194;9.142;2023-08-06T05:18:02;99620.09;;;26.56;44.61
79131;BME280;70394;45.194;9.142;2023-08-06T05:20:27;99621.78;;;26.57;44.68
79131;BME280;70394;45.194;9.142;2023-08-06T05:22:53;99600.63;;;26.46;44.59
79131;BME280;70394;45.194;9.142;2023-08-06T05:25:18;99618.91;;;26.59;44.82
79131;BME280;70394;45.194;9.142;2023-08-06T05:27:43;99630.91;;;26.56;44.64
79131;BME280;70394;45.194;9.142;2023-08-06T05:30:09;99629.06;;;26.57;44.75
79131;BME280;70394;45.194;9.142;2023-08-06T05:32:35;99623.00;;;26.55;44.87
79131;BME280;70394;45.194;9.142;2023-08-06T05:35:00;99616.91;;;26.52;44.75
79131;BME280;70394;45.194;9.142;2023-08-06T05:37:26;99636.81;;;26.60;44.87
79131;BME280;70394;45.194;9.142;2023-08-06T05:39:51;99626.81;;;26.60;44.67
79131;BME280;70394;45.194;9.142;2023-08-06T05:42:16;99624.09;;;26.22;45.67
79131;BME280;70394;45.194;9.142;2023-08-06T05:44:42;99634.06;;;25.90;45.82
79131;BME280;70394;45.194;9.142;2023-08-06T05:47:07;99642.34;;;25.57;47.29
79131;BME280;70394;45.194;9.142;2023-08-06T05:49:33;99640.66;;;25.56;47.61
79131;BME280;70394;45.194;9.142;2023-08-06T05:51:58;99640.00;;;25.45;47.73
79131;BME280;70394;45.194;9.142;2023-08-06T05:54:24;99630.44;;;25.34;48.24
79131;BME280;70394;45.194;9.142;2023-08-06T05:56:50;99641.56;;;25.39;48.00
79131;BME280;70394;45.194;9.142;2023-08-06T05:59:15;99641.22;;;25.34;48.19
79131;BME280;70394;45.194;9.142;2023-08-06T06:01:40;99647.84;;;25.23;48.01
79131;BME280;70394;45.194;9.142;2023-08-06T06:04:06;99654.59;;;25.19;48.42
79131;BME280;70394;45.194;9.142;2023-08-06T06:23:15;99671.28;;;25.23;48.35
79131;BME280;70394;45.194;9.142;2023-08-06T06:25:47;99667.06;;;25.12;48.67
79131;BME280;70394;45.194;9.142;2023-08-06T06:28:13;99665.38;;;25.11;48.79
79131;BME280;70394;45.194;9.142;2023-08-06T06:30:38;99666.41;;;25.18;48.74
79131;BME280;70394;45.194;9.142;2023-08-06T06:33:03;99668.44;;;25.08;49.15
79131;BME280;70394;45.194;9.142;2023-08-06T06:35:29;99660.50;;;25.15;49.32
79131;BME280;70394;45.194;9.142;2023-08-06T06:37:55;99665.38;;;25.11;49.17
79131;BME280;70394;45.194;9.142;2023-08-06T06:40:20;99686.31;;;25.17;49.33
79131;BME280;70394;45.194;9.142;2023-08-06T06:42:45;99683.59;;;25.17;49.23
79131;BME280;70394;45.194;9.142;2023-08-06T06:45:10;99678.22;;;25.17;49.13
79131;BME280;70394;45.194;9.142;2023-08-06T06:47:36;99673.47;;;25.19;49.47
79131;BME280;70394;45.194;9.142;2023-08-06T06:50:01;99683.91;;;25.31;49.14
79131;BME280;70394;45.194;9.142;2023-08-06T06:52:27;99686.63;;;25.31;49.62
79131;BME280;70394;45.194;9.142;2023-08-06T06:54:52;99688.97;;;25.34;49.52
79131;BME280;70394;45.194;9.142;2023-08-06T06:57:17;99683.72;;;25.32;49.32
79131;BME280;70394;45.194;9.142;2023-08-06T06:59:43;99685.06;;;25.36;49.06
79131;BME280;70394;45.194;9.142;2023-08-06T07:02:08;99678.47;;;25.39;48.71
79131;BME280;70394;45.194;9.142;2023-08-06T07:04:33;99669.56;;;25.38;49.18
79131;BME280;70394;45.194;9.142;2023-08-06T07:06:59;99668.03;;;25.36;49.87
79131;BME280;70394;45.194;9.142;2023-08-06T07:09:24;99669.38;;;25.40;49.33
79131;BME280;70394;45.194;9.142;2023-08-06T07:11:49;99666.00;;;25.38;49.59
79131;BME280;70394;45.194;9.142;2023-08-06T07:14:15;99672.25;;;25.38;49.48
79131;BME280;70394;45.194;9.142;2023-08-06T07:16:40;99679.66;;;25.45;49.26
79131;BME280;70394;45.194;9.142;2023-08-06T07:19:06;99676.09;;;25.44;49.09
79131;BME280;70394;45.194;9.142;2023-08-06T07:21:31;99667.69;;;25.39;49.24
79131;BME280;70394;45.194;9.142;2023-08-06T07:23:57;99658.25;;;25.35;49.56
79131;BME280;70394;45.194;9.142;2023-08-06T07:26:24;99661.94;;;25.42;49.55
79131;BME280;70394;45.194;9.142;2023-08-06T07:28:49;99654.41;;;25.29;49.35
79131;BME280;70394;45.194;9.142;2023-08-06T07:31:15;99666.72;;;25.32;49.36
79131;BME280;70394;45.194;9.142;2023-08-06T07:33:40;99673.09;;;25.39;49.25
79131;BME280;70394;45.194;9.142;2023-08-06T07:36:13;99674.44;;;25.35;49.11
79131;BME280;70394;45.194;9.142;2023-08-06T07:38:38;99661.63;;;25.37;49.47
79131;BME280;70394;45.194;9.142;2023-08-06T07:41:04;99669.38;;;25.40;49.33
79131;BME280;70394;45.194;9.142;2023-08-06T07:43:30;99656.03;;;25.55;49.11
79131;BME280;70394;45.194;9.142;2023-08-06T07:46:00;99663.94;;;25.57;49.41
79131;BME280;70394;45.194;9.142;2023-08-06T07:48:27;99655.19;;;25.54;49.44
79131;BME280;70394;45.194;9.142;2023-08-06T07:50:53;99653.84;;;25.50;49.70
79131;BME280;70394;45.194;9.142;2023-08-06T07:53:21;99649.09;;;25.44;49.85
79131;BME280;70394;45.194;9.142;2023-08-06T07:55:53;99648.28;;;25.44;49.74
79131;BME280;70394;45.194;9.142;2023-08-06T07:58:20;99652.81;;;25.43;49.30
79131;BME280;70394;45.194;9.142;2023-08-06T08:00:46;99654.19;;;25.47;49.06
79131;BME280;70394;45.194;9.142;2023-08-06T08:03:13;99677.28;;;25.58;49.07
79131;BME280;70394;45.194;9.142;2023-08-06T08:05:39;99672.91;;;25.57;48.76
79131;BME280;70394;45.194;9.142;2023-08-06T08:08:05;99668.97;;;25.60;48.94
79131;BME280;70394;45.194;9.142;2023-08-06T08:10:31;99655.69;;;25.58;48.91
79131;BME280;70394;45.194;9.142;2023-08-06T08:12:56;99660.38;;;25.64;48.88
79131;BME280;70394;45.194;9.142;2023-08-06T08:15:22;99661.03;;;25.66;48.96
79131;BME280;70394;45.194;9.142;2023-08-06T08:17:47;99649.56;;;25.64;48.80
79131;BME280;70394;45.194;9.142;2023-08-06T08:20:13;99648.69;;;25.72;48.59
79131;BME280;70394;45.194;9.142;2023-08-06T08:22:38;99651.59;;;25.71;48.75
79131;BME280;70394;45.194;9.142;2023-08-06T08:25:04;99653.25;;;25.72;48.61
79131;BME280;70394;45.194;9.142;2023-08-06T08:27:30;99665.75;;;25.73;48.50
79131;BME280;70394;45.194;9.142;2023-08-06T08:29:56;99669.13;;;25.66;48.62
79131;BME280;70394;45.194;9.142;2023-08-06T08:32:21;99681.09;;;25.72;48.67
79131;BME280;70394;45.194;9.142;2023-08-06T08:34:46;99681.59;;;25.76;48.32
79131;BME280;70394;45.194;9.142;2023-08-06T08:37:13;99686.97;;;25.76;48.66
79131;BME280;70394;45.194;9.142;2023-08-06T08:39:38;99673.47;;;25.76;48.53
79131;BME280;70394;45.194;9.142;2023-08-06T08:42:03;99685.75;;;25.87;48.28
79131;BME280;70394;45.194;9.142;2023-08-06T08:44:30;99683.91;;;25.87;48.08
79131;BME280;70394;45.194;9.142;2023-08-06T08:46:57;99686.03;;;25.92;48.23
79131;BME280;70394;45.194;9.142;2023-08-06T08:49:23;99680.47;;;25.93;47.86
79131;BME280;70394;45.194;9.142;2023-08-06T08:51:50;99666.13;;;25.93;47.73
79131;BME280;70394;45.194;9.142;2023-08-06T08:54:18;99673.91;;;25.96;47.71
79131;BME280;70394;45.194;9.142;2023-08-06T08:56:45;99670.19;;;25.89;47.61
79131;BME280;70394;45.194;9.142;2023-08-06T08:59:11;99680.66;;;25.92;47.65
79131;BME280;70394;45.194;9.142;2023-08-06T09:01:37;99677.28;;;25.90;47.59
79131;BME280;70394;45.194;9.142;2023-08-06T09:04:04;99680.97;;;25.97;47.14
79131;BME280;70394;45.194;9.142;2023-08-06T09:06:32;99681.44;;;26.01;47.32
79131;BME280;70394;45.194;9.142;2023-08-06T09:09:06;99676.91;;;26.01;46.85
79131;BME280;70394;45.194;9.142;2023-08-06T09:11:37;99679.91;;;26.06;47.08
79131;BME280;70394;45.194;9.142;2023-08-06T09:14:08;99678.72;;;26.09;46.35
79131;BME280;70394;45.194;9.142;2023-08-06T09:16:35;99688.19;;;26.05;46.29
79131;BME280;70394;45.194;9.142;2023-08-06T09:19:07;99687.19;;;26.06;46.55
79131;BME280;70394;45.194;9.142;2023-08-06T09:21:32;99680.38;;;26.10;46.10
79131;BME280;70394;45.194;9.142;2023-08-06T09:24:01;99683.22;;;26.17;46.21
79131;BME280;70394;45.194;9.142;2023-08-06T09:26:33;99678.66;;;26.17;46.26
79131;BME280;70394;45.194;9.142;2023-08-06T09:28:59;99680.31;;;26.27;46.39
79131;BME280;70394;45.194;9.142;2023-08-06T09:31:32;99685.72;;;26.27;46.18
79131;BME280;70394;45.194;9.142;2023-08-06T09:33:59;99684.16;;;26.32;46.09
79131;BME280;70394;45.194;9.142;2023-08-06T09:36:26;99680.06;;;26.36;45.95
79131;BME280;70394;45.194;9.142;2023-08-06T09:38:52;99681.25;;;26.34;45.68
79131;BME280;70394;45.194;9.142;2023-08-06T09:41:27;99685.84;;;26.33;45.73
79131;BME280;70394;45.194;9.142;2023-08-06T09:43:53;99682.16;;;26.26;45.35
79131;BME280;70394;45.194;9.142;2023-08-06T09:46:19;99677.63;;;26.27;44.94
79131;BME280;70394;45.194;9.142;2023-08-06T09:48:46;99679.47;;;26.26;44.01
79131;BME280;70394;45.194;9.142;2023-08-06T09:51:13;99685.19;;;26.31;44.02
79131;BME280;70394;45.194;9.142;2023-08-06T09:53:40;99692.44;;;26.31;43.56
79131;BME280;70394;45.194;9.142;2023-08-06T09:56:06;99689.06;;;26.29;43.09
79131;BME280;70394;45.194;9.142;2023-08-06T09:58:32;99676.94;;;26.24;42.18
79131;BME280;70394;45.194;9.142;2023-08-06T10:00:59;99688.59;;;26.25;41.33
79131;BME280;70394;45.194;9.142;2023-08-06T10:03:25;99670.72;;;26.16;41.34
79131;BME280;70394;45.194;9.142;2023-08-06T10:05:50;99687.41;;;26.28;41.54
79131;BME280;70394;45.194;9.142;2023-08-06T10:08:16;99684.53;;;26.29;41.19
79131;BME280;70394;45.194;9.142;2023-08-06T10:10:42;99687.56;;;26.26;39.68
79131;BME280;70394;45.194;9.142;2023-08-06T10:13:09;99676.63;;;26.19;40.61
79131;BME280;70394;45.194;9.142;2023-08-06T10:15:36;99686.59;;;26.19;37.26
79131;BME280;70394;45.194;9.142;2023-08-06T10:18:04;99677.78;;;26.25;38.93
79131;BME280;70394;45.194;9.142;2023-08-06T10:20:34;99683.53;;;26.22;38.20
79131;BME280;70394;45.194;9.142;2023-08-06T10:23:06;99697.19;;;26.29;38.30
79131;BME280;70394;45.194;9.142;2023-08-06T10:25:34;99680.03;;;26.21;37.72
79131;BME280;70394;45.194;9.142;2023-08-06T10:28:02;99695.63;;;26.34;37.96
79131;BME280;70394;45.194;9.142;2023-08-06T10:30:33;99689.56;;;26.32;36.08
79131;BME280;70394;45.194;9.142;2023-08-06T10:33:00;99686.22;;;26.30;35.62
79131;BME280;70394;45.194;9.142;2023-08-06T10:38:17;99688.19;;;26.36;38.33
79131;BME280;70394;45.194;9.142;2023-08-06T10:41:00;99691.19;;;26.42;37.86
79131;BME280;70394;45.194;9.142;2023-08-06T10:43:36;99681.88;;;26.44;37.60
79131;BME280;70394;45.194;9.142;2023-08-06T10:46:21;99685.97;;;26.40;38.00
79131;BME280;70394;45.194;9.142;2023-08-06T10:48:47;99678.88;;;26.39;37.39
79131;BME280;70394;45.194;9.142;2023-08-06T10:51:13;99692.69;;;26.44;32.53
79131;BME280;70394;45.194;9.142;2023-08-06T10:53:47;99686.44;;;26.44;35.65
79131;BME280;70394;45.194;9.142;2023-08-06T10:56:20;99684.03;;;26.49;35.16
79131;BME280;70394;45.194;9.142;2023-08-06T10:58:53;99679.81;;;26.46;36.93
79131;BME280;70394;45.194;9.142;2023-08-06T11:01:19;99677.25;;;26.53;37.42
79131;BME280;70394;45.194;9.142;2023-08-06T11:03:45;99671.06;;;26.44;37.07
79131;BME280;70394;45.194;9.142;2023-08-06T11:06:17;99669.38;;;26.43;35.27
79131;BME280;70394;45.194;9.142;2023-08-06T11:08:50;99670.81;;;26.54;36.95
79131;BME280;70394;45.194;9.142;2023-08-06T11:11:16;99676.59;;;26.51;35.32
79131;BME280;70394;45.194;9.142;2023-08-06T11:13:43;99677.91;;;26.55;35.42
79131;BME280;70394;45.194;9.142;2023-08-06T11:16:11;99677.28;;;26.45;33.46
79131;BME280;70394;45.194;9.142;2023-08-06T11:18:37;99678.28;;;26.52;34.89
79131;BME280;70394;45.194;9.142;2023-08-06T11:21:02;99671.47;;;26.56;33.86
79131;BME280;70394;45.194;9.142;2023-08-06T11:23:28;99673.47;;;26.62;35.16
79131;BME280;70394;45.194;9.142;2023-08-06T11:25:55;99663.47;;;26.63;33.09
79131;BME280;70394;45.194;9.142;2023-08-06T11:28:21;99661.31;;;26.58;34.21
79131;BME280;70394;45.194;9.142;2023-08-06T11:30:47;99658.34;;;26.68;36.55
79131;BME280;70394;45.194;9.142;2023-08-06T11:33:13;99654.34;;;26.64;33.95
79131;BME280;70394;45.194;9.142;2023-08-06T11:35:38;99657.03;;;26.64;33.50
79131;BME280;70394;45.194;9.142;2023-08-06T11:38:05;99659.25;;;26.60;34.75
79131;BME280;70394;45.194;9.142;2023-08-06T11:40:32;99656.56;;;26.60;34.59
79131;BME280;70394;45.194;9.142;2023-08-06T11:42:58;99657.53;;;26.67;33.02
79131;BME280;70394;45.194;9.142;2023-08-06T11:45:24;99657.31;;;26.69;33.54
79131;BME280;70394;45.194;9.142;2023-08-06T11:47:51;99656.88;;;26.65;34.31
79131;BME280;70394;45.194;9.142;2023-08-06T11:50:26;99650.63;;;26.65;32.68
79131;BME280;70394;45.194;9.142;2023-08-06T11:52:59;99654.28;;;26.72;33.83
79131;BME280;70394;45.194;9.142;2023-08-06T11:55:26;99650.44;;;26.66;32.45
79131;BME280;70394;45.194;9.142;2023-08-06T11:57:53;99641.31;;;26.67;32.75
79131;BME280;70394;45.194;9.142;2023-08-06T12:00:19;99648.03;;;26.72;33.34
79131;BME280;70394;45.194;9.142;2023-08-06T12:02:48;99639.16;;;26.78;33.70
79131;BME280;70394;45.194;9.142;2023-08-06T12:05:17;99637.47;;;26.77;33.29
79131;BME280;70394;45.194;9.142;2023-08-06T12:07:47;99633.31;;;26.74;34.09
79131;BME280;70394;45.194;9.142;2023-08-06T12:10:14;99636.56;;;26.70;32.10
79131;BME280;70394;45.194;9.142;2023-08-06T12:12:40;99642.63;;;26.72;32.38
79131;BME280;70394;45.194;9.142;2023-08-06T12:15:06;99634.78;;;26.77;33.60
79131;BME280;70394;45.194;9.142;2023-08-06T12:17:32;99624.44;;;26.65;31.60
79131;BME280;70394;45.194;9.142;2023-08-06T12:19:58;99623.56;;;26.65;32.06
79131;BME280;70394;45.194;9.142;2023-08-06T12:22:23;99626.00;;;26.75;30.96
79131;BME280;70394;45.194;9.142;2023-08-06T12:24:49;99626.38;;;26.72;31.45
79131;BME280;70394;45.194;9.142;2023-08-06T12:27:14;99619.47;;;26.69;30.24
79131;BME280;70394;45.194;9.142;2023-08-06T12:29:46;99630.22;;;26.77;32.79
79131;BME280;70394;45.194;9.142;2023-08-06T12:32:12;99615.94;;;26.69;30.74
79131;BME280;70394;45.194;9.142;2023-08-06T12:34:42;99620.16;;;26.71;30.46
79131;BME280;70394;45.194;9.142;2023-08-06T12:37:08;99626.88;;;26.75;32.35
79131;BME280;70394;45.194;9.142;2023-08-06T12:39:35;99626.31;;;26.80;29.95
79131;BME280;70394;45.194;9.142;2023-08-06T12:42:01;99626.97;;;26.82;30.48
79131;BME280;70394;45.194;9.142;2023-08-06T12:44:26;99618.88;;;26.82;32.57
79131;BME280;70394;45.194;9.142;2023-08-06T12:46:52;99620.53;;;26.83;30.96
79131;BME280;70394;45.194;9.142;2023-08-06T12:49:18;99624.44;;;26.80;30.41
79131;BME280;70394;45.194;9.142;2023-08-06T12:51:46;99620.47;;;26.91;32.01
79131;BME280;70394;45.194;9.142;2023-08-06T12:54:12;99625.09;;;26.83;30.00
79131;BME280;70394;45.194;9.142;2023-08-06T12:56:37;99633.72;;;26.86;30.29
79131;BME280;70394;45.194;9.142;2023-08-06T12:59:02;99636.69;;;26.91;32.90
79131;BME280;70394;45.194;9.142;2023-08-06T13:01:28;99626.78;;;26.84;29.65
79131;BME280;70394;45.194;9.142;2023-08-06T13:03:53;99631.34;;;26.83;29.73
79131;BME280;70394;45.194;9.142;2023-08-06T13:06:18;99627.63;;;26.84;29.46
79131;BME280;70394;45.194;9.142;2023-08-06T13:08:44;99611.78;;;26.81;28.10
79131;BME280;70394;45.194;9.142;2023-08-06T13:11:09;99625.19;;;26.74;26.76
79131;BME280;70394;45.194;9.142;2023-08-06T13:13:35;99626.88;;;26.75;28.78
79131;BME280;70394;45.194;9.142;2023-08-06T13:16:00;99630.06;;;26.79;27.10
79131;BME280;70394;45.194;9.142;2023-08-06T13:18:26;99625.47;;;26.79;26.63